createdAt,value
2022-10-05T00:01:48.616Z,99367.72
2022-10-05T00:04:21.227Z,99364.88
2022-10-05T00:06:55.776Z,99359.75
2022-10-05T00:09:22.538Z,99353.56
2022-10-05T00:11:50.931Z,99360.06
2022-10-05T00:14:27.663Z,99360.22
2022-10-05T00:16:55.243Z,99364.19
2022-10-05T00:19:27.132Z,99368.19
2022-10-05T00:21:58.482Z,99367.63
2022-10-05T00:24:25.047Z,99375.59
2022-10-05T00:26:56.908Z,99366.16
2022-10-05T00:29:24.201Z,99366.00
2022-10-05T00:31:50.706Z,99367.13
2022-10-05T00:34:17.850Z,99370.78
2022-10-05T00:36:45.629Z,99368.13
2022-10-05T00:39:12.287Z,99365.31
2022-10-05T00:42:17.128Z,99364.81
2022-10-05T00:44:58.858Z,99357.00
2022-10-05T00:47:28.000Z,99347.84
2022-10-05T00:50:32.077Z,99352.66
2022-10-05T00:53:16.264Z,99348.16
2022-10-05T00:56:04.330Z,99357.97
2022-10-05T00:58:33.693Z,99355.81
2022-10-05T01:01:11.949Z,99368.47
2022-10-05T01:04:09.344Z,99361.50
2022-10-05T01:06:52.942Z,99358.78
2022-10-05T01:09:41.193Z,99349.00
2022-10-05T01:12:17.131Z,99351.09
2022-10-05T01:15:04.459Z,99341.81
2022-10-05T01:17:42.174Z,99341.81
2022-10-05T01:20:42.548Z,99347.28
2022-10-05T01:23:45.721Z,99341.59
2022-10-05T01:26:37.559Z,99344.94
2022-10-05T01:29:06.793Z,99345.25
2022-10-05T01:31:45.220Z,99345.91
2022-10-05T01:34:29.832Z,99342.19
2022-10-05T01:37:02.201Z,99343.69
2022-10-05T01:39:42.029Z,99333.38
2022-10-05T01:42:33.080Z,99333.69
2022-10-05T01:45:23.036Z,99324.03
2022-10-05T01:48:17.608Z,99332.13
2022-10-05T01:51:02.806Z,99338.88
2022-10-05T01:53:46.096Z,99335.84
2022-10-05T01:56:22.555Z,99339.97
2022-10-05T01:59:01.700Z,99344.44
2022-10-05T02:01:38.815Z,99339.78
2022-10-05T02:04:59.910Z,99332.13
2022-10-05T02:07:23.273Z,99338.44
2022-10-05T02:10:00.049Z,99333.34
2022-10-05T02:12:31.306Z,99328.88
2022-10-05T02:15:07.956Z,99329.50
2022-10-05T02:17:42.457Z,99319.50
2022-10-05T02:20:14.111Z,99314.50
2022-10-05T02:22:47.428Z,99321.81
2022-10-05T02:25:17.515Z,99315.00
2022-10-05T02:28:08.331Z,99311.84
2022-10-05T02:30:43.175Z,99318.94
2022-10-05T02:33:18.994Z,99321.22
2022-10-05T02:35:45.599Z,99319.03
2022-10-05T02:38:26.915Z,99315.72
2022-10-05T02:41:21.656Z,99317.00
2022-10-05T02:43:59.771Z,99316.31
2022-10-05T02:46:38.988Z,99312.31
2022-10-05T02:49:35.258Z,99304.50
2022-10-05T02:52:25.449Z,99287.25
2022-10-05T02:55:10.793Z,99292.69
2022-10-05T02:58:04.143Z,99289.69
2022-10-05T03:00:36.702Z,99295.44
2022-10-05T03:03:13.161Z,99301.56
2022-10-05T03:05:46.719Z,99298.09
2022-10-05T03:08:28.305Z,99308.69
2022-10-05T03:11:08.585Z,99314.97
2022-10-05T03:13:54.592Z,99311.66
2022-10-05T03:16:43.862Z,99323.06
2022-10-05T03:19:50.934Z,99323.06
2022-10-05T03:22:48.485Z,99329.22
2022-10-05T03:25:21.360Z,99323.06
2022-10-05T03:27:50.839Z,99319.75
2022-10-05T03:30:22.062Z,99312.94
2022-10-05T03:32:57.838Z,99312.94
2022-10-05T03:35:48.835Z,99307.34
2022-10-05T03:38:17.835Z,99308.47
2022-10-05T03:40:46.461Z,99311.13
2022-10-05T03:43:44.077Z,99309.47
2022-10-05T03:46:44.791Z,99313.06
2022-10-05T03:49:50.077Z,99313.06
2022-10-05T03:52:22.575Z,99311.94
2022-10-05T03:55:05.584Z,99303.47
2022-10-05T03:57:38.193Z,99300.00
2022-10-05T04:00:13.928Z,99292.34
2022-10-05T04:02:47.599Z,99290.00
2022-10-05T04:05:18.928Z,99295.13
2022-10-05T04:07:52.139Z,99299.81
2022-10-05T04:10:33.200Z,99296.53
2022-10-05T04:13:06.762Z,99290.53
2022-10-05T04:16:00.880Z,99285.72
2022-10-05T04:18:38.454Z,99288.19
2022-10-05T04:21:11.727Z,99282.59
2022-10-05T04:23:55.444Z,99287.19
2022-10-05T04:26:45.272Z,99287.50
2022-10-05T04:29:11.819Z,99282.66
2022-10-05T04:32:09.235Z,99281.44
2022-10-05T04:34:49.613Z,99278.97
2022-10-05T04:37:42.066Z,99278.13
2022-10-05T04:40:23.908Z,99278.75
2022-10-05T04:43:14.767Z,99277.59
2022-10-05T04:46:24.487Z,99279.41
2022-10-05T04:49:35.860Z,99275.41
2022-10-05T04:52:32.834Z,99281.63
2022-10-05T04:55:39.356Z,99278.75
2022-10-05T04:58:31.127Z,99280.31
2022-10-05T05:01:35.975Z,99286.59
2022-10-05T05:04:24.366Z,99288.94
2022-10-05T05:07:11.091Z,99293.25
2022-10-05T05:09:52.461Z,99293.25
2022-10-05T05:12:46.791Z,99295.53
2022-10-05T05:15:37.406Z,99301.66
2022-10-05T05:18:33.363Z,99303.31
2022-10-05T05:21:21.729Z,99304.31
2022-10-05T05:24:27.896Z,99303.19
2022-10-05T05:27:23.263Z,99312.78
2022-10-05T05:29:58.435Z,99317.25
2022-10-05T05:32:33.682Z,99318.81
2022-10-05T05:35:08.912Z,99321.63
2022-10-05T05:38:04.717Z,99316.47
2022-10-05T05:40:44.038Z,99325.69
2022-10-05T05:43:24.269Z,99336.06
2022-10-05T05:45:56.575Z,99335.81
2022-10-05T05:48:41.236Z,99343.88
2022-10-05T05:51:16.136Z,99341.94
2022-10-05T05:53:53.874Z,99338.75
2022-10-05T05:56:36.237Z,99351.41
2022-10-05T05:59:14.375Z,99351.94
2022-10-05T06:01:47.432Z,99355.88
2022-10-05T06:04:26.830Z,99352.94
2022-10-05T06:06:56.116Z,99362.22
2022-10-05T06:09:25.804Z,99356.41
2022-10-05T06:11:56.184Z,99358.75
2022-10-05T06:14:25.922Z,99361.09
2022-10-05T06:17:03.108Z,99364.63
2022-10-05T06:19:33.572Z,99361.22
2022-10-05T06:22:14.941Z,99362.34
2022-10-05T06:25:20.798Z,99368.56
2022-10-05T06:28:09.922Z,99375.63
2022-10-05T06:31:14.503Z,99376.75
2022-10-05T06:33:50.874Z,99380.09
2022-10-05T06:36:28.057Z,99388.19
2022-10-05T06:39:24.905Z,99383.41
2022-10-05T06:41:57.079Z,99382.22
2022-10-05T06:44:33.474Z,99384.56
2022-10-05T06:47:33.989Z,99391.31
2022-10-05T06:50:21.498Z,99385.34
2022-10-05T06:53:13.307Z,99396.66
2022-10-05T06:55:50.637Z,99387.50
2022-10-05T06:59:01.933Z,99393.06
2022-10-05T07:01:31.430Z,99379.63
2022-10-05T07:04:10.227Z,99370.06
2022-10-05T07:06:57.715Z,99385.13
2022-10-05T07:09:43.461Z,99374.19
2022-10-05T07:12:40.105Z,99383.00
2022-10-05T07:15:27.382Z,99369.56
2022-10-05T07:18:21.916Z,99364.13
2022-10-05T07:21:06.823Z,99366.31
2022-10-05T07:23:52.693Z,99363.91
2022-10-05T07:26:23.712Z,99356.56
2022-10-05T07:28:54.361Z,99356.03
2022-10-05T07:31:35.020Z,99353.28
2022-10-05T07:34:09.652Z,99353.56
2022-10-05T07:37:03.168Z,99349.78
2022-10-05T07:40:09.997Z,99351.00
2022-10-05T07:42:58.467Z,99343.19
2022-10-05T07:45:44.517Z,99350.06
2022-10-05T07:48:20.526Z,99352.44
2022-10-05T07:50:57.793Z,99353.16
2022-10-05T07:53:45.277Z,99350.53
2022-10-05T07:56:29.453Z,99353.53
2022-10-05T07:59:03.550Z,99344.63
2022-10-05T08:01:35.304Z,99347.00
2022-10-05T08:04:28.959Z,99345.38
2022-10-05T08:07:05.585Z,99343.97
2022-10-05T08:09:48.194Z,99332.72
2022-10-05T08:12:35.888Z,99327.09
2022-10-05T08:15:11.289Z,99341.34
2022-10-05T08:17:56.801Z,99335.09
2022-10-05T08:20:34.856Z,99338.47
2022-10-05T08:23:45.939Z,99336.75
2022-10-05T08:26:22.152Z,99336.41
2022-10-05T08:29:27.289Z,99340.50
2022-10-05T08:32:18.647Z,99337.22
2022-10-05T08:35:03.920Z,99333.81
2022-10-05T08:37:36.280Z,99336.81
2022-10-05T08:40:11.819Z,99327.44
2022-10-05T08:43:01.512Z,99328.56
2022-10-05T08:45:46.838Z,99318.38
2022-10-05T08:48:45.772Z,99309.53
2022-10-05T08:51:45.523Z,99308.56
2022-10-05T08:54:20.837Z,99309.97
2022-10-05T08:57:14.583Z,99311.88
2022-10-05T08:59:58.326Z,99302.56
2022-10-05T09:02:42.898Z,99297.16
2022-10-05T09:05:15.448Z,99297.81
2022-10-05T09:08:16.142Z,99287.81
2022-10-05T09:10:45.201Z,99297.50
2022-10-05T09:13:11.661Z,99294.13
2022-10-05T09:15:59.181Z,99287.81
2022-10-05T09:18:52.664Z,99284.69
2022-10-05T09:21:31.831Z,99284.44
2022-10-05T09:24:24.793Z,99277.03
2022-10-05T09:27:03.276Z,99291.13
2022-10-05T09:29:41.730Z,99277.06
2022-10-05T09:32:44.283Z,99276.19
2022-10-05T09:35:20.594Z,99279.53
2022-10-05T09:37:57.823Z,99279.06
2022-10-05T09:40:48.996Z,99276.69
2022-10-05T09:43:27.437Z,99270.25
2022-10-05T09:46:32.358Z,99273.16
2022-10-05T09:49:33.126Z,99258.66
2022-10-05T09:51:59.444Z,99254.72
2022-10-05T09:54:59.940Z,99251.94
2022-10-05T09:57:49.384Z,99259.09
2022-10-05T10:00:29.059Z,99244.78
2022-10-05T10:03:07.758Z,99235.41
2022-10-05T10:05:34.063Z,99237.56
2022-10-05T10:08:12.558Z,99232.91
2022-10-05T10:10:51.044Z,99229.69
2022-10-05T10:13:35.795Z,99232.13
2022-10-05T10:16:13.464Z,99238.91
2022-10-05T10:19:10.289Z,99220.97
2022-10-05T10:22:01.712Z,99223.94
2022-10-05T10:24:43.311Z,99225.31
2022-10-05T10:27:21.493Z,99226.06
2022-10-05T10:29:56.758Z,99230.06
2022-10-05T10:32:41.687Z,99220.69
2022-10-05T10:35:20.351Z,99219.50
2022-10-05T10:37:53.153Z,99222.75
2022-10-05T10:40:56.852Z,99224.88
2022-10-05T10:43:47.998Z,99214.28
2022-10-05T10:46:28.883Z,99218.56
2022-10-05T10:49:12.477Z,99207.78
2022-10-05T10:52:21.997Z,99208.78
2022-10-05T10:55:22.019Z,99207.22
2022-10-05T10:58:22.299Z,99197.28
2022-10-05T11:01:06.622Z,99191.44
2022-10-05T11:03:51.701Z,99194.53
2022-10-05T11:06:26.344Z,99185.50
2022-10-05T11:09:14.753Z,99187.06
2022-10-05T11:11:44.033Z,99184.22
2022-10-05T11:14:28.367Z,99177.09
2022-10-05T11:17:26.583Z,99176.00
2022-10-05T11:20:30.468Z,99177.28
2022-10-05T11:23:39.183Z,99175.16
2022-10-05T11:26:25.176Z,99170.63
2022-10-05T11:29:19.885Z,99165.63
2022-10-05T11:32:07.551Z,99160.03
2022-10-05T11:34:49.003Z,99154.28
2022-10-05T11:37:38.883Z,99153.22
2022-10-05T11:40:33.005Z,99152.88
2022-10-05T11:43:38.210Z,99148.94
2022-10-05T11:46:04.710Z,99138.13
2022-10-05T11:48:42.759Z,99141.81
2022-10-05T11:51:28.891Z,99141.50
2022-10-05T11:54:23.017Z,99132.34
2022-10-05T11:57:04.024Z,99125.00
2022-10-05T11:59:38.642Z,99137.69
2022-10-05T12:02:23.671Z,99131.94
2022-10-05T12:05:17.592Z,99126.22
2022-10-05T12:08:01.132Z,99125.47
2022-10-05T12:10:52.442Z,99120.81
2022-10-05T12:13:46.490Z,99117.75
2022-10-05T12:16:22.896Z,99112.66
2022-10-05T12:18:58.036Z,99122.91
2022-10-05T12:21:50.246Z,99116.69
2022-10-05T12:24:48.225Z,99108.81
2022-10-05T12:27:22.456Z,99100.09
2022-10-05T12:30:14.854Z,99105.44
2022-10-05T12:32:51.996Z,99106.28
2022-10-05T12:35:36.559Z,99101.72
2022-10-05T12:38:26.540Z,99085.59
2022-10-05T12:41:09.088Z,99093.19
2022-10-05T12:43:45.362Z,99093.44
2022-10-05T12:46:33.294Z,99084.81
2022-10-05T12:49:10.565Z,99087.28
2022-10-05T12:51:43.165Z,99090.31
2022-10-05T12:54:27.539Z,99084.78
2022-10-05T12:56:56.762Z,99076.56
2022-10-05T12:59:34.883Z,99084.16
2022-10-05T13:02:15.335Z,99082.97
2022-10-05T13:04:52.232Z,99080.41
2022-10-05T13:07:46.446Z,99070.25
2022-10-05T13:10:21.625Z,99084.13
2022-10-05T13:13:16.226Z,99073.81
2022-10-05T13:16:06.696Z,99074.03
2022-10-05T13:18:57.759Z,99073.41
2022-10-05T13:21:38.091Z,99072.19
2022-10-05T13:24:23.286Z,99067.13
2022-10-05T13:26:56.692Z,99067.25
2022-10-05T13:29:39.643Z,99067.28
2022-10-05T13:32:21.279Z,99060.41
2022-10-05T13:35:15.501Z,99056.41
2022-10-05T13:37:55.493Z,99059.94
2022-10-05T13:40:24.926Z,99055.38
2022-10-05T13:42:59.874Z,99060.78
2022-10-05T13:45:32.053Z,99062.16
2022-10-05T13:48:18.820Z,99061.16
2022-10-05T13:50:58.876Z,99059.50
2022-10-05T13:53:34.458Z,99057.38
2022-10-05T13:56:17.797Z,99062.34
2022-10-05T13:59:12.142Z,99070.91
2022-10-05T14:01:58.618Z,99064.81
2022-10-05T14:04:30.506Z,99068.44
2022-10-05T14:07:13.509Z,99069.91
2022-10-05T14:09:48.271Z,99069.63
2022-10-05T14:12:20.838Z,99071.47
2022-10-05T14:14:56.651Z,99072.38
2022-10-05T14:17:43.348Z,99074.78
2022-10-05T14:20:32.901Z,99075.19
2022-10-05T14:23:13.199Z,99073.38
2022-10-05T14:25:51.540Z,99079.66
2022-10-05T14:28:28.893Z,99070.09
2022-10-05T14:31:03.487Z,99071.47
2022-10-05T14:33:32.680Z,99071.16
2022-10-05T14:35:59.854Z,99067.38
2022-10-05T14:38:48.910Z,99062.78
2022-10-05T14:41:18.583Z,99063.44
2022-10-05T14:44:02.284Z,99065.63
2022-10-05T14:46:31.373Z,99057.44
2022-10-05T14:49:26.331Z,99069.75
2022-10-05T14:51:54.439Z,99067.28
2022-10-05T14:54:25.640Z,99064.84
2022-10-05T14:57:05.819Z,99052.63
2022-10-05T14:59:53.059Z,99055.94
2022-10-05T15:02:53.537Z,99040.94
2022-10-05T15:05:25.238Z,99038.25
2022-10-05T15:07:56.156Z,99042.63
2022-10-05T15:10:42.991Z,99042.31
2022-10-05T15:13:15.394Z,99042.59
2022-10-05T15:15:54.275Z,99039.59
2022-10-05T15:18:42.043Z,99030.06
2022-10-05T15:21:39.692Z,99036.31
2022-10-05T15:24:13.158Z,99036.53
2022-10-05T15:26:52.102Z,99034.06
2022-10-05T15:30:01.938Z,99034.03
2022-10-05T15:32:39.398Z,99029.91
2022-10-05T15:35:33.499Z,99032.56
2022-10-05T15:38:06.595Z,99027.09
2022-10-05T15:40:49.032Z,99039.03
2022-10-05T15:43:19.655Z,99031.38
2022-10-05T15:46:10.142Z,99034.63
2022-10-05T15:48:44.690Z,99039.69
2022-10-05T15:51:35.467Z,99035.84
2022-10-05T15:54:17.920Z,99039.03
2022-10-05T15:56:53.045Z,99036.78
2022-10-05T15:59:31.301Z,99036.44
2022-10-05T16:02:00.946Z,99060.00
2022-10-05T16:04:44.888Z,99051.50
2022-10-05T16:07:22.094Z,99060.25
2022-10-05T16:09:59.800Z,99068.28
2022-10-05T16:12:39.115Z,99061.97
2022-10-05T16:15:14.707Z,99065.63
2022-10-05T16:17:49.388Z,99069.25
2022-10-05T16:20:18.574Z,99066.69
2022-10-05T16:23:09.250Z,99071.50
2022-10-05T16:26:12.632Z,99081.84
2022-10-05T16:28:45.830Z,99075.94
2022-10-05T16:31:18.190Z,99078.03
2022-10-05T16:34:09.449Z,99076.09
2022-10-05T16:37:03.503Z,99075.56
2022-10-05T16:39:50.229Z,99073.91
2022-10-05T16:42:24.399Z,99074.47
2022-10-05T16:45:10.826Z,99074.41
2022-10-05T16:47:47.608Z,99083.88
2022-10-05T16:50:37.800Z,99081.88
2022-10-05T16:53:30.416Z,99080.78
2022-10-05T16:56:04.297Z,99083.69
2022-10-05T16:58:43.053Z,99083.25
2022-10-05T17:01:48.269Z,99092.72
2022-10-05T17:04:40.439Z,99089.66
2022-10-05T17:07:46.137Z,99100.16
2022-10-05T17:10:45.336Z,99096.97
2022-10-05T17:13:23.534Z,99105.81
2022-10-05T17:16:34.438Z,99112.03
2022-10-05T17:19:12.979Z,99112.25
2022-10-05T17:21:50.253Z,99120.34
2022-10-05T17:24:38.616Z,99123.13
2022-10-05T17:27:34.274Z,99133.13
2022-10-05T17:30:31.661Z,99128.31
2022-10-05T17:33:00.849Z,99141.38
2022-10-05T17:35:42.783Z,99146.28
2022-10-05T17:38:18.853Z,99141.81
2022-10-05T17:41:00.887Z,99148.56
2022-10-05T17:43:29.643Z,99156.34
2022-10-05T17:45:58.694Z,99153.59
2022-10-05T17:48:41.857Z,99163.03
2022-10-05T17:51:37.732Z,99161.03
2022-10-05T17:54:25.325Z,99169.25
2022-10-05T17:56:57.698Z,99173.84
2022-10-05T17:59:42.641Z,99174.44
2022-10-05T18:02:20.534Z,99175.97
2022-10-05T18:05:09.804Z,99173.16
2022-10-05T18:07:38.372Z,99178.00
2022-10-05T18:10:10.952Z,99171.66
2022-10-05T18:12:38.097Z,99177.38
2022-10-05T18:15:08.068Z,99175.19
2022-10-05T18:17:51.372Z,99178.53
2022-10-05T18:20:19.748Z,99184.16
2022-10-05T18:22:47.308Z,99187.06
2022-10-05T18:25:27.535Z,99190.84
2022-10-05T18:28:05.151Z,99200.22
2022-10-05T18:31:12.210Z,99214.13
2022-10-05T18:34:17.341Z,99214.97
2022-10-05T18:37:21.181Z,99225.72
2022-10-05T18:39:50.447Z,99229.47
2022-10-05T18:42:39.251Z,99233.97
2022-10-05T18:45:32.367Z,99240.19
2022-10-05T18:48:23.826Z,99250.69
2022-10-05T18:50:58.291Z,99251.28
2022-10-05T18:53:42.548Z,99254.16
2022-10-05T18:56:34.518Z,99259.31
2022-10-05T18:59:19.625Z,99256.81
2022-10-05T19:01:59.472Z,99258.28
2022-10-05T19:05:04.898Z,99265.03
2022-10-05T19:07:37.643Z,99259.66
2022-10-05T19:10:08.385Z,99270.59
2022-10-05T19:12:38.116Z,99277.56
2022-10-05T19:15:33.992Z,99275.09
2022-10-05T19:18:15.526Z,99281.69
2022-10-05T19:20:54.279Z,99279.38
2022-10-05T19:23:23.916Z,99283.28
2022-10-05T19:25:50.606Z,99287.56
2022-10-05T19:28:36.907Z,99291.47
2022-10-05T19:31:20.073Z,99303.63
2022-10-05T19:33:58.426Z,99307.31
2022-10-05T19:36:57.192Z,99305.00
2022-10-05T19:39:57.295Z,99314.44
2022-10-05T19:42:49.335Z,99321.63
2022-10-05T19:45:22.615Z,99322.16
2022-10-05T19:48:08.096Z,99331.50
2022-10-05T19:50:37.512Z,99330.06
2022-10-05T19:53:13.193Z,99341.78
2022-10-05T19:55:42.570Z,99341.34
2022-10-05T19:58:24.675Z,99343.78
2022-10-05T20:01:02.177Z,99353.78
2022-10-05T20:03:31.029Z,99367.56
2022-10-05T20:06:03.158Z,99360.31
2022-10-05T20:08:41.050Z,99376.34
2022-10-05T20:11:24.145Z,99372.22
2022-10-05T20:14:13.517Z,99383.31
2022-10-05T20:16:39.994Z,99385.53
2022-10-05T20:19:34.511Z,99392.09
2022-10-05T20:22:29.472Z,99396.34
2022-10-05T20:25:01.433Z,99403.28
2022-10-05T20:27:46.930Z,99410.84
2022-10-05T20:30:19.069Z,99412.25
2022-10-05T20:32:53.964Z,99417.34
2022-10-05T20:35:20.814Z,99422.06
2022-10-05T20:37:47.140Z,99426.75
2022-10-05T20:40:13.452Z,99427.97
2022-10-05T20:42:39.929Z,99433.88
2022-10-05T20:45:06.704Z,99438.59
2022-10-05T20:47:33.183Z,99446.16
2022-10-05T20:49:59.613Z,99441.34
2022-10-05T20:52:26.141Z,99450.09
2022-10-05T20:54:52.565Z,99461.38
2022-10-05T20:57:19.737Z,99466.63
2022-10-05T20:59:46.276Z,99457.69
2022-10-05T21:02:12.724Z,99464.41
2022-10-05T21:04:41.215Z,99473.63
2022-10-05T21:07:08.088Z,99469.28
2022-10-05T21:09:35.759Z,99473.72
2022-10-05T21:12:02.217Z,99477.59
2022-10-05T21:14:28.860Z,99490.47
2022-10-05T21:16:55.194Z,99489.00
2022-10-05T21:19:21.728Z,99487.50
2022-10-05T21:21:48.140Z,99498.56
2022-10-05T21:24:15.455Z,99498.09
2022-10-05T21:26:43.199Z,99500.09
2022-10-05T21:29:12.685Z,99493.66
2022-10-05T21:31:40.213Z,99495.81
2022-10-05T21:34:07.478Z,99507.88
2022-10-05T21:36:34.145Z,99499.75
2022-10-05T21:39:00.952Z,99507.31
2022-10-05T21:41:27.760Z,99512.44
2022-10-05T21:43:54.295Z,99511.81
2022-10-05T21:46:24.247Z,99521.00
2022-10-05T21:48:50.672Z,99522.84
2022-10-05T21:51:19.274Z,99523.22
2022-10-05T21:53:54.853Z,99534.06
2022-10-05T21:56:25.660Z,99532.75
2022-10-05T21:58:52.264Z,99536.81
2022-10-05T22:01:22.445Z,99533.47
2022-10-05T22:03:49.842Z,99542.84
2022-10-05T22:06:16.143Z,99535.00
2022-10-05T22:08:42.591Z,99542.00
2022-10-05T22:11:17.331Z,99544.38
2022-10-05T22:13:46.866Z,99544.72
2022-10-05T22:16:14.867Z,99549.25
2022-10-05T22:18:41.808Z,99563.28
2022-10-05T22:21:10.119Z,99558.13
2022-10-05T22:23:36.656Z,99560.16
2022-10-05T22:26:03.914Z,99571.19
2022-10-05T22:28:33.010Z,99568.00
2022-10-05T22:31:02.767Z,99574.34
2022-10-05T22:33:29.077Z,99562.19
2022-10-05T22:35:57.817Z,99566.88
2022-10-05T22:38:25.863Z,99566.38
2022-10-05T22:40:52.959Z,99575.22
2022-10-05T22:43:19.435Z,99571.06
2022-10-05T22:45:46.095Z,99577.75
2022-10-05T22:48:12.794Z,99576.44
2022-10-05T22:50:39.287Z,99577.44
2022-10-05T22:53:05.990Z,99583.78
2022-10-05T22:55:32.332Z,99576.28
2022-10-05T22:57:59.724Z,99571.97
2022-10-05T23:00:40.321Z,99571.78
2022-10-05T23:03:12.756Z,99573.13
2022-10-05T23:05:39.077Z,99571.84
2022-10-05T23:08:05.365Z,99579.16
2022-10-05T23:10:31.691Z,99577.50
2022-10-05T23:13:00.809Z,99576.16
2022-10-05T23:15:27.639Z,99586.19
2022-10-05T23:17:53.958Z,99588.00
2022-10-05T23:20:20.294Z,99585.53
2022-10-05T23:22:46.575Z,99592.69
2022-10-05T23:25:13.132Z,99592.84
2022-10-05T23:27:41.504Z,99588.03
2022-10-05T23:30:09.641Z,99584.56
2022-10-05T23:32:41.219Z,99587.22
2022-10-05T23:35:09.786Z,99582.88
2022-10-05T23:37:38.026Z,99593.72
2022-10-05T23:40:06.328Z,99588.53
2022-10-05T23:42:32.744Z,99593.88
2022-10-05T23:44:59.292Z,99596.72
2022-10-05T23:47:25.915Z,99595.22
2022-10-05T23:49:52.588Z,99600.56
2022-10-05T23:52:19.030Z,99605.41
2022-10-05T23:54:45.323Z,99610.72
2022-10-05T23:57:19.202Z,99611.91
2022-10-05T23:59:46.300Z,99611.91
